Station Historical Data
Daily Summary for January 23, 2018 Units:  Metric    English   Both
« Previous Day
Next Day »
Daily Weekly Monthly Yearly Custom
  High: Low: Average:
Temperature: -17.8 °C 0.8 °C 5.4 °C
Dew Point: -17.8 °C -1.3 °C 3 °C
Humidity: Humidity% 68% 85%
Wind Speed: 0km/h 0km/h 12.6km/h
Wind Gust: 0km/h - -
Wind- - SW
Pressure: 0 hPa 998.9 hPa -
Precipitation: 6.35 mm    
Historical Graphs
 
 
Tabular Data for January 23, 2018
Time Temperature Dew Point Pressure Wind Wind Speed Wind Gust Humidity Rainfall Rate (Hourly)
-17.8 °C -17.8 °C 0 hPa Calm     Humidity% 0 mm
00:04 8.9 °C 7 °C 1003.3 hPa SSE 1.6 km/h 9.7 km/h 88% 0.76 mm
00:09 8.9 °C 7 °C 1003.3 hPa SSE 3.2 km/h 9.7 km/h 88% 0.76 mm
00:14 8.9 °C 7 °C 1002.9 hPa SSE 3.2 km/h 11.3 km/h 88% 0.76 mm
00:19 9.1 °C 7.2 °C 1002.9 hPa SSE 1.6 km/h 11.3 km/h 88% 0.51 mm
00:24 9.3 °C 7.2 °C 1002.6 hPa SSE 6.4 km/h 9.7 km/h 87% 0.51 mm
00:29 9.4 °C 7.3 °C 1002.6 hPa SSE 3.2 km/h 8 km/h 87% 0.51 mm
00:34 9.3 °C 7.1 °C 1002.3 hPa SSE 1.6 km/h 6.4 km/h 86% 0.25 mm
00:44 9.3 °C 7.1 °C 1002.3 hPa SSE 3.2 km/h 8 km/h 86% 0.25 mm
00:49 9.3 °C 6.9 °C 1001.9 hPa SSE 3.2 km/h 8 km/h 85% 0.25 mm
00:54 9.3 °C 6.9 °C 1001.9 hPa SSE 4.8 km/h 8 km/h 85% 0 mm
00:59 9.4 °C 7 °C 1001.9 hPa SSE 8 km/h 11.3 km/h 85% 0 mm
01:04 9.5 °C 6.9 °C 1001.6 hPa SSE 6.4 km/h 9.7 km/h 84% 0 mm
01:14 9.7 °C 6.9 °C 1001.6 hPa SSE 4.8 km/h 9.7 km/h 83% 0 mm
01:19 9.8 °C 7 °C 1001.6 hPa SSE 6.4 km/h 17.7 km/h 83% 0 mm
01:24 9.9 °C 7 °C 1001.6 hPa South 6.4 km/h 17.7 km/h 82% 0 mm
01:29 10.1 °C 6.9 °C 1001.2 hPa SSW 11.3 km/h 16.1 km/h 81% 0 mm
01:34 10.2 °C 7.1 °C 1001.2 hPa SSE 8 km/h 22.5 km/h 81% 0 mm
01:39 10.3 °C 7.1 °C 1001.2 hPa SE 9.7 km/h 17.7 km/h 80% 0 mm
01:44 10.3 °C 6.8 °C 1001.2 hPa SSE 8 km/h 17.7 km/h 79% 0 mm
01:49 10.3 °C 6.7 °C 1000.9 hPa SSE 8 km/h 19.3 km/h 78% 0 mm
01:54 10.4 °C 6.7 °C 1000.9 hPa SSE 9.7 km/h 24.1 km/h 78% 0 mm
01:59 10.4 °C 6.7 °C 1000.6 hPa SSE 11.3 km/h 24.1 km/h 78% 0 mm
02:04 10.4 °C 6.6 °C 1000.2 hPa SSE 16.1 km/h 22.5 km/h 77% 0 mm
02:09 10.4 °C 6.6 °C 1000.2 hPa SE 3.2 km/h 25.7 km/h 77% 0 mm
02:19 10.4 °C 6.6 °C 999.9 hPa SSE 9.7 km/h 24.1 km/h 77% 0 mm
02:24 10.4 °C 6.6 °C 999.9 hPa SSE 9.7 km/h 24.1 km/h 77% 0 mm
02:29 10.4 °C 6.6 °C 999.9 hPa SSE 8 km/h 16.1 km/h 77% 0 mm
02:34 10.6 °C 6.7 °C 999.5 hPa SSE 14.5 km/h 17.7 km/h 77% 0 mm
02:39 10.7 °C 6.8 °C 999.5 hPa South 6.4 km/h 16.1 km/h 77% 0 mm
02:44 10.8 °C 6.8 °C 999.5 hPa South 9.7 km/h 24.1 km/h 76% 0 mm
02:49 10.9 °C 6.9 °C 999.2 hPa SSE 11.3 km/h 24.1 km/h 76% 0 mm
02:59 11 °C 6.9 °C 999.2 hPa SSE 12.9 km/h 30.6 km/h 76% 0 mm
03:04 11.1 °C 7.1 °C 999.2 hPa SSE 12.9 km/h 30.6 km/h 76% 0 mm
03:09 11.2 °C 7.2 °C 998.9 hPa SSE 14.5 km/h 30.6 km/h 76% 0 mm
03:14 11.2 °C 7.1 °C 998.9 hPa SSE 11.3 km/h 27.4 km/h 76% 0 mm
03:19 11.1 °C 7.1 °C 998.9 hPa SSE 17.7 km/h 29 km/h 76% 0 mm
03:24 11.1 °C 7.1 °C 999.5 hPa South 14.5 km/h 29 km/h 76% 0 mm
03:29 11.1 °C 7.2 °C 999.9 hPa SSW 9.7 km/h 24.1 km/h 77% 0 mm
03:34 11.2 °C 7.3 °C 1000.9 hPa SSW 40.2 km/h 40.2 km/h 77% 0 mm
03:39 10.8 °C 6.9 °C 1001.2 hPa SSW 17.7 km/h 53.1 km/h 77% 0.25 mm
03:49 8.6 °C 5.3 °C 1001.6 hPa SW 12.9 km/h 29 km/h 80% 0.25 mm
03:54 7.8 °C 4.9 °C 1001.6 hPa WSW 16.1 km/h 29 km/h 82% 0.25 mm
03:59 7.3 °C 4.6 °C 1001.9 hPa WSW 14.5 km/h 27.4 km/h 83% 0.51 mm
04:04 6.9 °C 4.4 °C 1001.9 hPa WSW 12.9 km/h 22.5 km/h 84% 0.76 mm
04:09 6.6 °C 4.2 °C 1001.9 hPa WSW 11.3 km/h 24.1 km/h 85% 1.27 mm
04:14 6.2 °C 3.8 °C 1001.9 hPa SW 9.7 km/h 24.1 km/h 85% 1.52 mm
04:19 5.8 °C 3.6 °C 1001.9 hPa SW 11.3 km/h 24.1 km/h 86% 2.03 mm
04:24 5.4 °C 3.4 °C 1002.3 hPa SSW 9.7 km/h 24.1 km/h 87% 2.54 mm
04:29 5.2 °C 3.2 °C 1002.3 hPa SW 11.3 km/h 29 km/h 87% 2.79 mm
04:34 5.1 °C 3.3 °C 1001.9 hPa WSW 9.7 km/h 29 km/h 88% 3.05 mm
04:39 5.1 °C 3.2 °C 1001.9 hPa WSW 8 km/h 16.1 km/h 88% 3.05 mm
04:44 5.1 °C 3.4 °C 1001.9 hPa SW 6.4 km/h 16.1 km/h 89% 3.3 mm
04:59 5.3 °C 3.8 °C 1001.6 hPa SW 9.7 km/h 20.9 km/h 90% 3.81 mm
05:09 5.4 °C 3.9 °C 1001.9 hPa SSW 6.4 km/h 14.5 km/h 90% 3.81 mm
05:14 5.6 °C 4.1 °C 1001.9 hPa SSW 4.8 km/h 12.9 km/h 90% 3.81 mm
05:19 5.8 °C 4.4 °C 1002.3 hPa SSW 6.4 km/h 12.9 km/h 91% 3.3 mm
05:24 5.9 °C 4.6 °C 1001.9 hPa SW 3.2 km/h 11.3 km/h 91% 2.79 mm
05:34 6.1 °C 4.7 °C 1001.6 hPa South 4.8 km/h 11.3 km/h 91% 2.54 mm
05:39 6.1 °C 4.7 °C 1001.2 hPa South 4.8 km/h 6.4 km/h 91% 2.29 mm
05:49 6.2 °C 4.9 °C 1000.6 hPa SSE 4.8 km/h 6.4 km/h 91% 1.78 mm
05:54 6.3 °C 4.9 °C 1000.9 hPa SSW 3.2 km/h 8 km/h 91% 1.52 mm
05:59 6.2 °C 4.9 °C 1000.6 hPa Calm   4.8 km/h 91% 1.27 mm
06:04 6.2 °C 4.8 °C 1000.9 hPa SSW 3.2 km/h 6.4 km/h 91% 0.76 mm
06:09 6.1 °C 4.7 °C 1000.2 hPa SSW 1.6 km/h 6.4 km/h 91% 0.51 mm
06:14 5.9 °C 4.6 °C 1000.2 hPa Calm   3.2 km/h 91% 0.25 mm
06:19 5.8 °C 4.5 °C 1000.9 hPa Calm     91% 0.25 mm
06:29 5.7 °C 4.4 °C 1000.9 hPa Calm     92% 0 mm
06:34 5.7 °C 4.4 °C 1000.9 hPa South 1.6 km/h 4.8 km/h 92% 0 mm
06:39 5.8 °C 4.6 °C 1000.9 hPa South 1.6 km/h 6.4 km/h 92% 0 mm
06:44 5.8 °C 4.6 °C 1000.6 hPa Calm   4.8 km/h 92% 0 mm
06:49 6 °C 4.8 °C 999.9 hPa SE 1.6 km/h 6.4 km/h 92% 0 mm
06:54 6 °C 4.8 °C 999.9 hPa Calm   3.2 km/h 92% 0 mm
06:59 6 °C 4.8 °C 1000.2 hPa Calm     92% 0 mm
07:04 5.9 °C 4.7 °C 1000.2 hPa Calm     92% 0 mm
07:09 5.9 °C 4.7 °C 1000.2 hPa Calm     92% 0 mm
07:14 5.9 °C 4.7 °C 1000.2 hPa Calm     92% 0 mm
07:19 5.8 °C 4.6 °C 1000.2 hPa Calm     92% 0 mm
07:24 5.7 °C 4.5 °C 1000.6 hPa Calm     92% 0 mm
07:29 5.8 °C 4.6 °C 1000.6 hPa Calm   6.4 km/h 92% 0 mm
07:34 5.9 °C 4.7 °C 1000.6 hPa SSE 1.6 km/h 6.4 km/h 92% 0 mm
07:39 6.1 °C 4.8 °C 1000.6 hPa SSE 3.2 km/h 8 km/h 92% 0 mm
07:44 6.2 °C 4.9 °C 999.9 hPa South 1.6 km/h 6.4 km/h 92% 0 mm
07:49 6.2 °C 5 °C 999.9 hPa South 1.6 km/h 4.8 km/h 92% 0 mm
07:54 6.3 °C 5.1 °C 999.9 hPa South 6.4 km/h 6.4 km/h 92% 0 mm
08:09 6.4 °C 5.2 °C 999.9 hPa SSW 3.2 km/h 6.4 km/h 92% 0 mm
08:14 6.4 °C 5.2 °C 1000.2 hPa Calm   6.4 km/h 92% 0 mm
08:19 6.4 °C 5.2 °C 1000.2 hPa SSW 3.2 km/h 6.4 km/h 92% 0 mm
08:24 6.6 °C 5.3 °C 1000.6 hPa SW 3.2 km/h 8 km/h 92% 0 mm
08:29 6.7 °C 5.4 °C 1000.6 hPa SSW 3.2 km/h 9.7 km/h 92% 0 mm
08:34 6.7 °C 5.4 °C 1000.2 hPa SSW 3.2 km/h 9.7 km/h 92% 0 mm
08:39 6.7 °C 5.5 °C 1000.2 hPa SSW 3.2 km/h 8 km/h 92% 0 mm
08:49 7 °C 5.6 °C 999.5 hPa SW 4.8 km/h 8 km/h 91% 0 mm
08:54 7.3 °C 5.9 °C 999.9 hPa SW 4.8 km/h 12.9 km/h 91% 0 mm
08:59 7.4 °C 6.1 °C 999.9 hPa SSW 3.2 km/h 16.1 km/h 91% 0 mm
09:04 7.6 °C 6.1 °C 999.9 hPa SSW 11.3 km/h 11.3 km/h 90% 0 mm
09:09 7.7 °C 6.1 °C 999.9 hPa SW 6.4 km/h 16.1 km/h 90% 0 mm
09:14 7.7 °C 6 °C 999.9 hPa SSW 4.8 km/h 11.3 km/h 89% 0 mm
09:19 7.9 °C 6.2 °C 999.9 hPa SSW 9.7 km/h 19.3 km/h 89% 0 mm
09:24 7.9 °C 6 °C 999.9 hPa SSW 6.4 km/h 19.3 km/h 88% 0 mm
09:29 7.9 °C 5.8 °C 999.9 hPa SW 11.3 km/h 25.7 km/h 87% 0 mm
09:34 7.8 °C 5.4 °C 999.9 hPa SW 12.9 km/h 30.6 km/h 85% 0 mm
09:54 8.2 °C 4.1 °C 999.5 hPa South 11.3 km/h 24.1 km/h 75% 0 mm
09:59 8.2 °C 4.1 °C 999.5 hPa South 11.3 km/h 19.3 km/h 75% 0 mm
10:04 8.2 °C 4.2 °C 999.5 hPa South 11.3 km/h 20.9 km/h 76% 0 mm
10:09 8.1 °C 4.1 °C 999.2 hPa SSW 11.3 km/h 19.3 km/h 76% 0 mm
10:14 8.2 °C 4 °C 999.2 hPa SW 12.9 km/h 25.7 km/h 75% 0 mm
10:19 8.2 °C 4 °C 999.2 hPa South 6.4 km/h 22.5 km/h 75% 0 mm
10:24 8.6 °C 4.4 °C 999.2 hPa SW 11.3 km/h 17.7 km/h 75% 0 mm
10:29 8.8 °C 4.4 °C 999.2 hPa South 9.7 km/h 19.3 km/h 74% 0 mm
10:34 9.1 °C 4.4 °C 999.2 hPa South 9.7 km/h 19.3 km/h 73% 0 mm
10:39 9.4 °C 4.4 °C 998.9 hPa SSW 9.7 km/h 20.9 km/h 71% 0 mm
10:44 9.9 °C 4.7 °C 999.2 hPa SSW 9.7 km/h 24.1 km/h 70% 0 mm
10:49 9.5 °C 4.1 °C 999.2 hPa SW 11.3 km/h 24.1 km/h 69% 0 mm
10:54 9.2 °C 3.6 °C 999.5 hPa SW 12.9 km/h 25.7 km/h 68% 0 mm
10:59 8.7 °C 3.5 °C 999.9 hPa WSW 14.5 km/h 32.2 km/h 70% 0 mm
11:04 7.3 °C 2.8 °C 999.9 hPa WSW 24.1 km/h 35.4 km/h 73% 0 mm
11:09 6.2 °C 2.4 °C 999.9 hPa WSW 12.9 km/h 30.6 km/h 77% 0 mm
11:19 5.1 °C 1.7 °C 1000.2 hPa WSW 22.5 km/h 32.2 km/h 79% 0 mm
11:29 4.1 °C 1.3 °C 1000.2 hPa WSW 19.3 km/h 33.8 km/h 82% 0.25 mm
11:34 3.7 °C 1.1 °C 1000.6 hPa SW 16.1 km/h 29 km/h 83% 0.25 mm
11:39 3.4 °C 0.9 °C 1000.6 hPa WSW 12.9 km/h 29 km/h 84% 0.25 mm
11:44 3.2 °C 0.8 °C 1000.6 hPa WSW 17.7 km/h 35.4 km/h 84% 0.51 mm
11:49 3.2 °C 0.9 °C 1000.6 hPa WSW 17.7 km/h 38.6 km/h 85% 0.51 mm
11:54 3.1 °C 0.8 °C 1000.6 hPa WSW 16.1 km/h 38.6 km/h 85% 0.51 mm
11:59 3.1 °C 0.9 °C 1000.6 hPa WSW 14.5 km/h 29 km/h 86% 0.51 mm
12:04 3 °C 0.9 °C 1000.6 hPa SW 12.9 km/h 27.4 km/h 86% 0.51 mm
12:09 3 °C 0.9 °C 1000.9 hPa SW 12.9 km/h 25.7 km/h 86% 0.51 mm
12:14 2.8 °C 0.7 °C 1000.9 hPa SW 14.5 km/h 29 km/h 86% 0.51 mm
12:19 2.6 °C 0.5 °C 1000.9 hPa SW 14.5 km/h 29 km/h 86% 0.51 mm
12:24 2.4 °C 0.5 °C 1000.9 hPa SSW 14.5 km/h 30.6 km/h 87% 0.51 mm
12:29 2.4 °C 0.4 °C 1000.9 hPa SW 16.1 km/h 27.4 km/h 87% 0.25 mm
12:34 2.3 °C 0.4 °C 1000.9 hPa SW 14.5 km/h 29 km/h 87% 0.25 mm
12:39 2.3 °C 0.4 °C 1000.9 hPa WSW 9.7 km/h 25.7 km/h 87% 0.25 mm
12:44 2.3 °C 0.4 °C 1000.9 hPa WSW 11.3 km/h 38.6 km/h 87% 0 mm
12:49 2.3 °C 0.3 °C 1000.9 hPa SW 16.1 km/h 38.6 km/h 87% 0 mm
12:54 2.2 °C 0.3 °C 1001.2 hPa SW 16.1 km/h 37 km/h 87% 0 mm
12:59 2.3 °C 0.3 °C 1001.2 hPa SW 16.1 km/h 37 km/h 87% 0 mm
13:04 2.2 °C 0.3 °C 1001.2 hPa SW 11.3 km/h 32.2 km/h 87% 0 mm
13:09 2.3 °C 0.3 °C 1001.2 hPa SW 24.1 km/h 29 km/h 87% 0 mm
13:14 2.3 °C 0.6 °C 1001.2 hPa SW 14.5 km/h 30.6 km/h 88% 0 mm
13:19 2.4 °C 0.6 °C 1001.2 hPa WSW 12.9 km/h 30.6 km/h 88% 0 mm
13:24 2.5 °C 0.7 °C 1001.2 hPa WSW 16.1 km/h 30.6 km/h 88% 0 mm
13:29 2.4 °C 0.7 °C 1001.2 hPa SW 32.2 km/h 38.6 km/h 88% 0 mm
13:34 2.4 °C 0.5 °C 1001.2 hPa WSW 19.3 km/h 38.6 km/h 87% 0 mm
13:39 2.4 °C 0.7 °C 1001.2 hPa WSW 17.7 km/h 32.2 km/h 88% 0 mm
13:44 2.4 °C 0.6 °C 1001.2 hPa WSW 17.7 km/h 37 km/h 88% 0 mm
13:49 2.4 °C 0.7 °C 1001.2 hPa WSW 14.5 km/h 32.2 km/h 88% 0 mm
13:59 2.6 °C 0.7 °C 1001.2 hPa WSW 16.1 km/h 35.4 km/h 87% 0 mm
14:04 2.6 °C 0.7 °C 1001.2 hPa WSW 17.7 km/h 35.4 km/h 87% 0 mm
14:09 2.6 °C 0.7 °C 1001.2 hPa SW 29 km/h 38.6 km/h 87% 0 mm
14:19 2.7 °C 0.6 °C 1001.2 hPa West 16.1 km/h 40.2 km/h 86% 0 mm
14:29 2.8 °C 0.7 °C 1001.2 hPa WSW 11.3 km/h 32.2 km/h 86% 0 mm
14:34 2.9 °C 0.8 °C 1001.2 hPa WSW 17.7 km/h 32.2 km/h 86% 0 mm
14:39 2.9 °C 0.8 °C 1001.2 hPa WSW 17.7 km/h 32.2 km/h 86% 0 mm
14:44 2.8 °C 0.7 °C 1001.6 hPa WSW 17.7 km/h 33.8 km/h 86% 0 mm
14:49 2.8 °C 0.7 °C 1001.6 hPa WSW 11.3 km/h 40.2 km/h 86% 0 mm
14:54 2.9 °C 0.8 °C 1001.6 hPa West 8 km/h 27.4 km/h 86% 0 mm
15:04 2.8 °C 0.7 °C 1001.6 hPa WSW 17.7 km/h 37 km/h 86% 0 mm
15:09 2.8 °C 0.7 °C 1001.6 hPa SW 22.5 km/h 30.6 km/h 86% 0 mm
15:14 2.7 °C 0.6 °C 1001.6 hPa SSW 24.1 km/h 33.8 km/h 86% 0 mm
15:19 2.7 °C 0.6 °C 1001.6 hPa WSW 17.7 km/h 33.8 km/h 86% 0 mm
15:24 2.7 °C 0.4 °C 1001.9 hPa WSW 12.9 km/h 35.4 km/h 85% 0 mm
15:29 2.7 °C 0.4 °C 1001.9 hPa WSW 20.9 km/h 32.2 km/h 85% 0 mm
15:34 2.8 °C 0.5 °C 1001.9 hPa SW 33.8 km/h 33.8 km/h 85% 0 mm
15:39 2.7 °C 0.3 °C 1001.9 hPa WSW 17.7 km/h 33.8 km/h 84% 0 mm
15:44 2.7 °C 0.3 °C 1001.9 hPa WSW 17.7 km/h 33.8 km/h 84% 0 mm
15:49 2.7 °C 0.2 °C 1002.3 hPa WSW 16.1 km/h 33.8 km/h 84% 0 mm
15:54 2.6 °C 0.2 °C 1001.9 hPa WSW 16.1 km/h 30.6 km/h 84% 0 mm
15:59 2.6 °C 0.2 °C 1002.3 hPa WSW 14.5 km/h 30.6 km/h 84% 0 mm
16:04 2.6 °C 0.3 °C 1002.3 hPa WSW 16.1 km/h 33.8 km/h 85% 0 mm
16:09 2.5 °C 0.2 °C 1002.3 hPa WSW 16.1 km/h 33.8 km/h 85% 0 mm
16:19 2.3 °C 0.1 °C 1002.3 hPa WSW 16.1 km/h 32.2 km/h 85% 0 mm
16:24 2.3 °C 0.2 °C 1002.6 hPa SW 22.5 km/h 29 km/h 86% 0 mm
16:29 2.3 °C 0.2 °C 1002.6 hPa SW 19.3 km/h 32.2 km/h 86% 0 mm
16:34 2.3 °C 0.2 °C 1002.6 hPa SW 17.7 km/h 32.2 km/h 86% 0 mm
16:39 2.2 °C 0.1 °C 1002.6 hPa SW 29 km/h 37 km/h 86% 0 mm
16:44 2.3 °C 0.2 °C 1002.6 hPa WSW 14.5 km/h 40.2 km/h 86% 0 mm
16:54 2.2 °C 0.1 °C 1002.6 hPa WSW 20.9 km/h 41.8 km/h 86% 0.25 mm
17:04 2.1 °C -0.1 °C 1002.6 hPa WSW 24.1 km/h 46.7 km/h 86% 0.25 mm
17:09 2 °C -0.1 °C 1002.6 hPa WSW 22.5 km/h 46.7 km/h 86% 0.25 mm
17:19 2 °C 0.1 °C 1002.9 hPa WSW 22.5 km/h 51.5 km/h 87% 0.25 mm
17:24 2 °C 0.1 °C 1002.9 hPa West 25.7 km/h 33.8 km/h 87% 0.25 mm
17:29 1.9 °C 0 °C 1002.9 hPa WSW 25.7 km/h 38.6 km/h 87% 0.25 mm
17:34 1.9 °C 0 °C 1002.6 hPa SW 20.9 km/h 45.1 km/h 87% 0.25 mm
17:39 2 °C 0.1 °C 1002.9 hPa SW 25.7 km/h 48.3 km/h 87% 0.25 mm
17:44 2.1 °C 0.1 °C 1002.9 hPa WSW 14.5 km/h 54.7 km/h 87% 0.25 mm
17:49 2.1 °C -0.1 °C 1002.9 hPa SW 22.5 km/h 54.7 km/h 86% 0.25 mm
17:54 2.2 °C 0.1 °C 1002.9 hPa WSW 25.7 km/h 54.7 km/h 86% 0 mm
17:59 2.2 °C 0.1 °C 1002.9 hPa WSW 25.7 km/h 51.5 km/h 86% 0 mm
18:04 2.3 °C 0 °C 1003.3 hPa WSW 25.7 km/h 49.9 km/h 85% 0 mm
18:14 2.3 °C 0 °C 1003.3 hPa WSW 24.1 km/h 46.7 km/h 85% 0 mm
18:19 2.2 °C -0.2 °C 1003.3 hPa WSW 25.7 km/h 51.5 km/h 84% 0 mm
18:29 2 °C -0.4 °C 1003.6 hPa South 32.2 km/h 45.1 km/h 84% 0 mm
18:34 1.9 °C -0.5 °C 1003.6 hPa SW 16.1 km/h 37 km/h 84% 0 mm
18:39 1.9 °C -0.5 °C 1003.6 hPa WSW 32.2 km/h 43.5 km/h 84% 0 mm
18:44 1.9 °C -0.7 °C 1003.6 hPa SW 16.1 km/h 48.3 km/h 83% 0 mm
18:49 1.9 °C -0.7 °C 1003.6 hPa WSW 22.5 km/h 38.6 km/h 83% 0 mm
18:54 1.9 °C -0.7 °C 1003.9 hPa WSW 35.4 km/h 41.8 km/h 83% 0 mm
19:14 1.7 °C -0.9 °C 1004.3 hPa WSW 25.7 km/h 49.9 km/h 83% 0 mm
19:19 1.6 °C -1 °C 1004.3 hPa WSW 25.7 km/h 49.9 km/h 83% 0 mm
19:24 1.6 °C -1 °C 1004.3 hPa WSW 17.7 km/h 41.8 km/h 83% 0 mm
19:29 1.5 °C -0.9 °C 1004.6 hPa WSW 16.1 km/h 53.1 km/h 84% 0 mm
19:39 1.3 °C -1.1 °C 1004.6 hPa WSW 22.5 km/h 46.7 km/h 84% 0 mm
19:49 1.2 °C -1.2 °C 1005 hPa WSW 25.7 km/h 54.7 km/h 84% 0 mm
19:54 1.2 °C -1.2 °C 1005.3 hPa SW 24.1 km/h 48.3 km/h 84% 0 mm
20:04 1 °C -1.2 °C 1005.3 hPa SW 16.1 km/h 40.2 km/h 85% 0 mm
20:09 0.9 °C -1.3 °C 1005.3 hPa WSW 19.3 km/h 43.5 km/h 85% 0 mm
20:14 0.9 °C -1.2 °C 1005.3 hPa WSW 22.5 km/h 43.5 km/h 86% 0 mm
20:19 0.8 °C -1.2 °C 1005.3 hPa WSW 24.1 km/h 53.1 km/h 86% 0 mm
Buffalo, New York, USA
Compliments of Weather Underground - 2 mb